Time;durP1;ratioP1;P1;durP2;ratioP2;P2;SDS_P1;SDS_P2;PMS_P1;PMS_P2;Temp;Humidity;BMP_temperature;BMP_pressure;BME280_temperature;BME280_humidity;BME280_pressure;Samples;Min_cycle;Max_cycle;Signal;HPM_P1;HPM_P2
2022/09/04 00:04:05;;;;;;;0.25;0.22;;;;;;;;;;10476160;28;20079;-79
2022/09/04 00:09:16;;;;;;;0.43;0.30;;;;;;;;;;10511723;28;20441;-79
2022/09/04 00:14:22;;;;;;;0.20;0.20;;;;;;;;;;10496884;28;20036;-79
2022/09/04 00:19:32;;;;;;;0.40;0.22;;;;;;;;;;10519606;28;20443;-79
2022/09/04 00:24:39;;;;;;;0.10;0.10;;;;;;;;;;10484440;28;20067;-79
2022/09/04 00:29:50;;;;;;;0.20;0.20;;;;;;;;;;10487230;28;20032;-79
2022/09/04 00:35:06;;;;;;;0.68;0.30;;;;;;;;;;10487407;28;20113;-80
2022/09/04 00:40:22;;;;;;;0.30;0.22;;;;;;;;;;10506237;28;20132;-79
2022/09/04 00:45:50;;;;;;;0.20;0.20;;;;;;;;;;10513716;28;20075;-79
2022/09/04 00:51:14;;;;;;;0.50;0.28;;;;;;;;;;10482894;28;20036;-80
2022/09/04 00:56:55;;;;;;;0.38;0.32;;;;;;;;;;10488234;28;20048;-79
2022/09/04 01:02:08;;;;;;;0.30;0.30;;;;;;;;;;10504544;28;20036;-80
2022/09/04 01:07:30;;;;;;;0.28;0.20;;;;;;;;;;10515208;28;20071;-79
2022/09/04 01:12:42;;;;;;;0.93;0.30;;;;;;;;;;10502481;28;20447;-79
2022/09/04 01:17:56;;;;;;;0.90;0.30;;;;;;;;;;10506241;28;20044;-79
2022/09/04 01:23:21;;;;;;;1.17;0.40;;;;;;;;;;10512451;28;20068;-79
2022/09/04 01:28:30;;;;;;;0.38;0.38;;;;;;;;;;10484927;28;20041;-79
2022/09/04 01:33:42;;;;;;;1.40;0.35;;;;;;;;;;10510652;28;20063;-79
2022/09/04 01:38:52;;;;;;;0.10;0.10;;;;;;;;;;10463282;28;20143;-79
2022/09/04 01:43:56;;;;;;;0.38;0.20;;;;;;;;;;10518759;28;20519;-79
2022/09/04 01:49:07;;;;;;;0.55;0.40;;;;;;;;;;10508254;28;20055;-79
2022/09/04 01:54:23;;;;;;;0.35;0.35;;;;;;;;;;10505345;28;20070;-79
2022/09/04 01:59:34;;;;;;;0.95;0.30;;;;;;;;;;10500025;28;20163;-79
2022/09/04 02:04:50;;;;;;;0.30;0.30;;;;;;;;;;10507566;28;20063;-79
2022/09/04 02:10:02;;;;;;;0.40;0.40;;;;;;;;;;10491886;28;20048;-79
2022/09/04 02:15:18;;;;;;;0.82;0.40;;;;;;;;;;10492866;28;20586;-79
2022/09/04 02:20:24;;;;;;;0.30;0.23;;;;;;;;;;10517686;28;20139;-80
2022/09/04 02:25:32;;;;;;;0.70;0.50;;;;;;;;;;10515475;28;20132;-79
2022/09/04 02:30:43;;;;;;;0.55;0.40;;;;;;;;;;10506851;28;20063;-79
2022/09/04 02:35:50;;;;;;;0.40;0.40;;;;;;;;;;10515233;28;20131;-79
2022/09/04 02:41:01;;;;;;;0.70;0.60;;;;;;;;;;10497200;28;20454;-79
2022/09/04 02:46:10;;;;;;;0.45;0.40;;;;;;;;;;10487974;28;20064;-79
2022/09/04 02:51:23;;;;;;;2.55;0.43;;;;;;;;;;10492848;28;20733;-79
2022/09/04 02:56:37;;;;;;;0.28;0.28;;;;;;;;;;10496238;28;20036;-79
2022/09/04 03:01:50;;;;;;;0.50;0.32;;;;;;;;;;10482261;28;20053;-79
2022/09/04 03:06:58;;;;;;;0.40;0.38;;;;;;;;;;10503428;28;20192;-79
2022/09/04 03:12:13;;;;;;;0.55;0.30;;;;;;;;;;10486574;28;20036;-79
2022/09/04 03:17:25;;;;;;;0.32;0.32;;;;;;;;;;10501369;28;20048;-80
2022/09/04 03:22:33;;;;;;;1.45;0.40;;;;;;;;;;10516236;28;20028;-79
2022/09/04 03:27:37;;;;;;;0.20;0.20;;;;;;;;;;10506347;28;20077;-79
2022/09/04 03:32:52;;;;;;;0.50;0.38;;;;;;;;;;10513580;28;20044;-79
2022/09/04 03:38:13;;;;;;;0.40;0.40;;;;;;;;;;10484028;28;20246;-79
2022/09/04 03:43:37;;;;;;;0.60;0.60;;;;;;;;;;10485594;28;20490;-79
2022/09/04 03:48:52;;;;;;;0.77;0.68;;;;;;;;;;10530340;28;20534;-79
2022/09/04 03:54:07;;;;;;;1.10;0.75;;;;;;;;;;10477983;28;20044;-80
2022/09/04 03:59:18;;;;;;;1.38;1.10;;;;;;;;;;10508974;28;20040;-79
2022/09/04 04:04:47;;;;;;;1.45;1.08;;;;;;;;;;10511641;28;20036;-79
2022/09/04 04:10:05;;;;;;;1.52;1.13;;;;;;;;;;10509320;28;20122;-79
2022/09/04 04:15:26;;;;;;;2.17;1.40;;;;;;;;;;10499058;28;20067;-79
2022/09/04 04:20:39;;;;;;;2.03;1.58;;;;;;;;;;10528390;28;20040;-79
2022/09/04 04:25:53;;;;;;;1.73;1.30;;;;;;;;;;10505035;28;20070;-80
2022/09/04 04:31:06;;;;;;;1.58;1.48;;;;;;;;;;10527662;28;20045;-79
2022/09/04 04:36:20;;;;;;;1.52;1.38;;;;;;;;;;10532595;28;20040;-79
2022/09/04 04:47:14;;;;;;;1.73;1.23;;;;;;;;;;10499817;28;20044;-79
2022/09/04 04:52:32;;;;;;;1.90;1.60;;;;;;;;;;10517335;28;20034;-79
2022/09/04 04:57:46;;;;;;;1.08;0.98;;;;;;;;;;10492105;28;20044;-79
2022/09/04 05:03:03;;;;;;;1.15;1.05;;;;;;;;;;10517410;28;20078;-79
2022/09/04 05:08:16;;;;;;;1.13;1.02;;;;;;;;;;10530442;28;20470;-79
2022/09/04 05:13:26;;;;;;;0.88;0.80;;;;;;;;;;10505795;28;20503;-79
2022/09/04 05:18:35;;;;;;;0.77;0.75;;;;;;;;;;10538947;28;20040;-79
2022/09/04 05:23:45;;;;;;;0.85;0.77;;;;;;;;;;10531636;28;20127;-80
2022/09/04 05:29:00;;;;;;;0.73;0.73;;;;;;;;;;10531521;28;20079;-79
2022/09/04 05:34:09;;;;;;;1.30;0.77;;;;;;;;;;10521574;28;20111;-79
2022/09/04 05:39:22;;;;;;;0.80;0.80;;;;;;;;;;10520210;28;20082;-79
2022/09/04 05:44:37;;;;;;;0.70;0.70;;;;;;;;;;10511689;28;20048;-79
2022/09/04 05:50:11;;;;;;;0.80;0.70;;;;;;;;;;10506650;28;20135;-80
2022/09/04 05:56:05;;;;;;;0.52;0.52;;;;;;;;;;10529458;28;20470;-79
2022/09/04 06:01:23;;;;;;;1.05;0.70;;;;;;;;;;10377853;28;20560;-79
2022/09/04 06:06:36;;;;;;;0.52;0.52;;;;;;;;;;10486497;28;20048;-80
2022/09/04 06:12:12;;;;;;;0.65;0.65;;;;;;;;;;10501748;28;20123;-79
2022/09/04 06:17:30;;;;;;;0.40;0.40;;;;;;;;;;10513571;28;20131;-79
2022/09/04 06:23:08;;;;;;;0.40;0.40;;;;;;;;;;10524390;28;20044;-79
2022/09/04 06:28:28;;;;;;;0.40;0.40;;;;;;;;;;10527622;28;20060;-79
2022/09/04 06:33:56;;;;;;;1.33;0.50;;;;;;;;;;10541465;28;20115;-79
2022/09/04 06:39:13;;;;;;;0.30;0.30;;;;;;;;;;10513832;28;20052;-79
2022/09/04 06:44:31;;;;;;;0.30;0.30;;;;;;;;;;10540676;28;20135;-80
2022/09/04 06:49:54;;;;;;;0.32;0.32;;;;;;;;;;10531857;28;20045;-79
2022/09/04 06:55:00;;;;;;;0.95;0.30;;;;;;;;;;10510684;28;20798;-79
2022/09/04 07:00:07;;;;;;;0.30;0.30;;;;;;;;;;10517824;28;20056;-79
2022/09/04 07:05:20;;;;;;;0.20;0.20;;;;;;;;;;10517322;28;20056;-80
2022/09/04 07:10:28;;;;;;;0.30;0.30;;;;;;;;;;10521571;28;20135;-79
2022/09/04 07:16:05;;;;;;;0.20;0.20;;;;;;;;;;10520984;28;20047;-79
2022/09/04 07:21:18;;;;;;;0.40;0.40;;;;;;;;;;10437662;28;20044;-79
2022/09/04 07:26:29;;;;;;;0.45;0.30;;;;;;;;;;10504070;28;20048;-79
2022/09/04 07:31:38;;;;;;;0.50;0.40;;;;;;;;;;10519392;28;20127;-79
2022/09/04 07:36:53;;;;;;;0.20;0.20;;;;;;;;;;10541885;28;20423;-79
2022/09/04 07:42:04;;;;;;;0.22;0.22;;;;;;;;;;10517119;28;20043;-79
2022/09/04 07:47:14;;;;;;;0.32;0.32;;;;;;;;;;10542541;28;20142;-80
2022/09/04 07:52:29;;;;;;;0.47;0.40;;;;;;;;;;10515708;28;20580;-79
2022/09/04 07:57:53;;;;;;;0.40;0.40;;;;;;;;;;10516185;28;20468;-80
2022/09/04 08:03:12;;;;;;;0.50;0.50;;;;;;;;;;10501121;28;20565;-80
2022/09/04 08:08:33;;;;;;;1.85;1.25;;;;;;;;;;10511517;28;20079;-79
2022/09/04 08:14:00;;;;;;;0.65;0.43;;;;;;;;;;10524685;28;20063;-80
2022/09/04 08:19:19;;;;;;;0.80;0.70;;;;;;;;;;10520241;28;20063;-80
2022/09/04 08:24:52;;;;;;;1.23;0.80;;;;;;;;;;10538980;28;20512;-80
2022/09/04 08:30:03;;;;;;;0.70;0.60;;;;;;;;;;10513658;28;20056;-79
2022/09/04 08:35:16;;;;;;;1.10;0.60;;;;;;;;;;10529716;28;20089;-80
2022/09/04 08:40:44;;;;;;;0.70;0.55;;;;;;;;;;10537103;28;20214;-80
2022/09/04 08:46:05;;;;;;;0.70;0.70;;;;;;;;;;10537707;28;20529;-79
2022/09/04 08:51:33;;;;;;;0.40;0.40;;;;;;;;;;10518514;28;20419;-79
2022/09/04 08:56:47;;;;;;;0.65;0.43;;;;;;;;;;10528264;28;20627;-79
2022/09/04 09:02:25;;;;;;;0.60;0.43;;;;;;;;;;10511812;28;20036;-79
2022/09/04 09:07:57;;;;;;;0.88;0.50;;;;;;;;;;10519798;28;20056;-80
2022/09/04 09:13:36;;;;;;;0.50;0.50;;;;;;;;;;10525605;28;20047;-79
2022/09/04 09:18:58;;;;;;;1.05;0.60;;;;;;;;;;10516684;28;20131;-79
2022/09/04 09:24:24;;;;;;;1.05;0.65;;;;;;;;;;10509434;28;20089;-79
2022/09/04 09:30:00;;;;;;;1.23;0.60;;;;;;;;;;10524589;28;20089;-79
2022/09/04 09:35:40;;;;;;;0.70;0.70;;;;;;;;;;10514533;28;20146;-80
2022/09/04 09:41:14;;;;;;;0.50;0.50;;;;;;;;;;10501446;28;20046;-79
2022/09/04 09:47:00;;;;;;;2.85;0.40;;;;;;;;;;10542334;28;20139;-79
2022/09/04 09:52:34;;;;;;;0.60;0.40;;;;;;;;;;10544035;28;20123;-80
2022/09/04 09:58:27;;;;;;;0.52;0.30;;;;;;;;;;10499076;28;20422;-79
2022/09/04 10:03:58;;;;;;;0.82;0.55;;;;;;;;;;10538879;28;20044;-79
2022/09/04 10:09:41;;;;;;;0.88;0.73;;;;;;;;;;10533212;28;20055;-80
2022/09/04 10:15:19;;;;;;;0.52;0.40;;;;;;;;;;10530514;28;20054;-79
2022/09/04 10:20:56;;;;;;;0.98;0.77;;;;;;;;;;10526387;28;20768;-80
2022/09/04 10:26:38;;;;;;;0.60;0.40;;;;;;;;;;10515538;28;20040;-80
2022/09/04 10:32:04;;;;;;;0.20;0.20;;;;;;;;;;10519663;28;20638;-79
2022/09/04 10:37:27;;;;;;;0.70;0.50;;;;;;;;;;10538216;28;20127;-80
2022/09/04 10:42:41;;;;;;;2.13;0.43;;;;;;;;;;10534510;28;20530;-81
2022/09/04 10:48:15;;;;;;;0.70;0.50;;;;;;;;;;10519467;28;20044;-80
2022/09/04 10:53:35;;;;;;;0.47;0.17;;;;;;;;;;10536068;28;20079;-80
2022/09/04 10:58:57;;;;;;;0.77;0.50;;;;;;;;;;10490558;28;20127;-80
2022/09/04 11:04:27;;;;;;;0.30;0.25;;;;;;;;;;10514076;28;20127;-80
2022/09/04 11:09:58;;;;;;;1.58;0.35;;;;;;;;;;10540219;28;20454;-80
2022/09/04 11:15:53;;;;;;;0.63;0.30;;;;;;;;;;10512908;28;20134;-80
2022/09/04 11:21:45;;;;;;;0.20;0.20;;;;;;;;;;10393476;28;20042;-80
2022/09/04 11:27:28;;;;;;;0.30;0.30;;;;;;;;;;10490726;28;20140;-80
2022/09/04 11:33:14;;;;;;;0.57;0.30;;;;;;;;;;10521714;28;20076;-79
2022/09/04 11:38:42;;;;;;;0.30;0.30;;;;;;;;;;10524458;28;20093;-80
2022/09/04 11:44:24;;;;;;;0.40;0.40;;;;;;;;;;10493951;28;20140;-80
2022/09/04 11:49:55;;;;;;;0.47;0.40;;;;;;;;;;10487469;28;20592;-80
2022/09/04 11:55:14;;;;;;;0.55;0.32;;;;;;;;;;10492730;28;20529;-79
2022/09/04 12:00:19;;;;;;;1.52;0.30;;;;;;;;;;10518970;28;20044;-79
2022/09/04 12:05:39;;;;;;;0.40;0.30;;;;;;;;;;10518693;28;20115;-80
2022/09/04 12:11:00;;;;;;;0.32;0.32;;;;;;;;;;10515856;28;20047;-80
2022/09/04 12:16:43;;;;;;;0.50;0.30;;;;;;;;;;10540372;28;20135;-80
2022/09/04 12:22:15;;;;;;;0.30;0.30;;;;;;;;;;10532138;28;20060;-80
2022/09/04 12:27:56;;;;;;;0.50;0.30;;;;;;;;;;10518368;28;20120;-80
2022/09/04 12:33:33;;;;;;;0.30;0.30;;;;;;;;;;10520260;28;20040;-79
2022/09/04 12:39:09;;;;;;;0.13;0.13;;;;;;;;;;10519779;28;20148;-80
2022/09/04 12:44:20;;;;;;;0.47;0.30;;;;;;;;;;10520342;28;20503;-80
2022/09/04 12:49:40;;;;;;;0.20;0.20;;;;;;;;;;10538605;28;20116;-80
2022/09/04 12:54:50;;;;;;;0.30;0.20;;;;;;;;;;10530619;28;20040;-80
2022/09/04 13:00:04;;;;;;;0.22;0.22;;;;;;;;;;10537182;28;20574;-80
2022/09/04 13:05:32;;;;;;;0.98;0.25;;;;;;;;;;10536691;28;20048;-80
2022/09/04 13:10:43;;;;;;;0.40;0.30;;;;;;;;;;10520103;28;20056;-79
2022/09/04 13:15:57;;;;;;;0.22;0.20;;;;;;;;;;10537354;28;20561;-80
2022/09/04 13:21:12;;;;;;;0.20;0.10;;;;;;;;;;10536610;28;20052;-80
2022/09/04 13:26:29;;;;;;;0.10;0.10;;;;;;;;;;10501993;28;20120;-80
2022/09/04 13:31:51;;;;;;;0.40;0.30;;;;;;;;;;10536233;28;20048;-80
2022/09/04 13:37:04;;;;;;;0.38;0.30;;;;;;;;;;10485731;28;20040;-79
2022/09/04 13:42:44;;;;;;;0.10;0.10;;;;;;;;;;10514377;28;20123;-79
2022/09/04 13:47:53;;;;;;;1.10;0.40;;;;;;;;;;10500903;28;20683;-79
2022/09/04 13:53:02;;;;;;;1.02;0.40;;;;;;;;;;10504514;28;20131;-79
2022/09/04 13:58:12;;;;;;;0.63;0.30;;;;;;;;;;10494643;28;20032;-79
2022/09/04 14:03:25;;;;;;;0.30;0.30;;;;;;;;;;10524799;28;20122;-80
2022/09/04 14:08:32;;;;;;;0.50;0.30;;;;;;;;;;10507191;28;20036;-79
2022/09/04 14:13:50;;;;;;;0.63;0.50;;;;;;;;;;10470371;28;21211;-79
2022/09/04 14:19:05;;;;;;;0.32;0.32;;;;;;;;;;10532051;28;20048;-79
2022/09/04 14:24:20;;;;;;;0.30;0.30;;;;;;;;;;10509136;28;20040;-80
2022/09/04 14:29:30;;;;;;;0.55;0.40;;;;;;;;;;10525233;28;20046;-79
2022/09/04 14:34:40;;;;;;;0.32;0.32;;;;;;;;;;10526435;28;20131;-79
2022/09/04 14:39:48;;;;;;;0.38;0.38;;;;;;;;;;10543242;28;20131;-80
2022/09/04 14:45:08;;;;;;;0.47;0.30;;;;;;;;;;10525121;28;20044;-80
2022/09/04 14:50:13;;;;;;;1.15;0.68;;;;;;;;;;10532702;28;20064;-80
2022/09/04 14:55:25;;;;;;;0.50;0.40;;;;;;;;;;10515210;28;20219;-79
2022/09/04 15:00:32;;;;;;;0.63;0.57;;;;;;;;;;10531962;28;20051;-79
2022/09/04 15:05:46;;;;;;;0.75;0.50;;;;;;;;;;10523815;28;20722;-79
2022/09/04 15:10:53;;;;;;;0.50;0.50;;;;;;;;;;10538732;28;20142;-79
2022/09/04 15:16:01;;;;;;;0.50;0.50;;;;;;;;;;10525434;28;20559;-79
2022/09/04 15:21:09;;;;;;;0.50;0.50;;;;;;;;;;10531824;28;20044;-79
2022/09/04 15:26:22;;;;;;;0.52;0.40;;;;;;;;;;10486987;28;20131;-79
2022/09/04 15:31:31;;;;;;;0.60;0.60;;;;;;;;;;10484811;28;20047;-80
2022/09/04 15:36:36;;;;;;;0.70;0.50;;;;;;;;;;10505021;28;20045;-80
2022/09/04 15:41:43;;;;;;;;;;;;;;;;;;10521462;28;20676;-80
2022/09/04 15:46:58;;;;;;;0.32;0.30;;;;;;;;;;10516822;28;19920;-80
2022/09/04 15:52:18;;;;;;;1.00;0.40;;;;;;;;;;10505997;28;20629;-80
2022/09/04 15:57:34;;;;;;;0.75;0.60;;;;;;;;;;10499096;28;20385;-80
2022/09/04 16:02:53;;;;;;;0.80;0.60;;;;;;;;;;10506893;28;20043;-80
2022/09/04 16:08:03;;;;;;;0.40;0.40;;;;;;;;;;10506037;28;20047;-80
2022/09/04 16:13:34;;;;;;;0.57;0.57;;;;;;;;;;10532959;28;20040;-80
2022/09/04 16:18:48;;;;;;;0.30;0.30;;;;;;;;;;10498261;28;20040;-80
2022/09/04 16:23:52;;;;;;;0.37;0.37;;;;;;;;;;10525539;28;20508;-79
2022/09/04 16:29:01;;;;;;;0.43;0.32;;;;;;;;;;10523691;28;20587;-80
2022/09/04 16:34:15;;;;;;;0.60;0.60;;;;;;;;;;10512697;28;20492;-80
2022/09/04 16:39:25;;;;;;;0.30;0.30;;;;;;;;;;10533534;28;20080;-80
2022/09/04 16:44:33;;;;;;;0.55;0.55;;;;;;;;;;10531977;28;20492;-79
2022/09/04 16:49:42;;;;;;;0.20;0.20;;;;;;;;;;10517109;28;20126;-80
2022/09/04 16:54:53;;;;;;;0.30;0.28;;;;;;;;;;10508605;28;20043;-80
2022/09/04 17:00:01;;;;;;;0.38;0.28;;;;;;;;;;10532999;28;20512;-80
2022/09/04 17:05:16;;;;;;;0.47;0.20;;;;;;;;;;10490418;28;20052;-80
2022/09/04 17:10:32;;;;;;;0.40;0.30;;;;;;;;;;10496889;28;20102;-79
2022/09/04 17:15:46;;;;;;;0.35;0.30;;;;;;;;;;10481762;28;20113;-80
2022/09/04 17:20:59;;;;;;;0.60;0.25;;;;;;;;;;10508500;28;20071;-80
2022/09/04 17:26:10;;;;;;;0.28;0.28;;;;;;;;;;10494621;28;20067;-80
2022/09/04 17:31:22;;;;;;;0.98;0.35;;;;;;;;;;10510477;28;20041;-79
2022/09/04 17:36:31;;;;;;;0.30;0.30;;;;;;;;;;10514069;28;20505;-80
2022/09/04 17:41:42;;;;;;;0.90;0.22;;;;;;;;;;10526465;28;20496;-80
2022/09/04 17:47:16;;;;;;;0.20;0.20;;;;;;;;;;10491711;28;20064;-80
2022/09/04 17:52:27;;;;;;;0.20;0.20;;;;;;;;;;10536128;28;20041;-79
2022/09/04 17:57:46;;;;;;;0.30;0.30;;;;;;;;;;10502240;28;20178;-80
2022/09/04 18:02:55;;;;;;;0.30;0.30;;;;;;;;;;10519633;28;20056;-80
2022/09/04 18:08:04;;;;;;;0.43;0.32;;;;;;;;;;10541501;28;20071;-81
2022/09/04 18:13:15;;;;;;;0.30;0.30;;;;;;;;;;10518219;28;20041;-80
2022/09/04 18:18:25;;;;;;;0.47;0.40;;;;;;;;;;10521014;28;20119;-80
2022/09/04 18:23:47;;;;;;;0.60;0.40;;;;;;;;;;10506367;28;20529;-80
2022/09/04 18:28:58;;;;;;;0.30;0.30;;;;;;;;;;10533131;28;20068;-80
2022/09/04 18:34:15;;;;;;;0.70;0.47;;;;;;;;;;10512813;28;20144;-81
2022/09/04 18:39:29;;;;;;;0.65;0.43;;;;;;;;;;10503103;28;20050;-80
2022/09/04 18:44:41;;;;;;;0.45;0.38;;;;;;;;;;10511331;28;20118;-80
2022/09/04 18:49:53;;;;;;;0.95;0.50;;;;;;;;;;10520906;28;20561;-80
2022/09/04 18:55:01;;;;;;;0.40;0.38;;;;;;;;;;10511845;28;20035;-81
2022/09/04 19:00:09;;;;;;;0.70;0.40;;;;;;;;;;10517808;28;20127;-80
2022/09/04 19:05:15;;;;;;;0.82;0.30;;;;;;;;;;10511194;28;20036;-80
2022/09/04 19:10:24;;;;;;;0.80;0.40;;;;;;;;;;10536682;28;20543;-79
2022/09/04 19:15:49;;;;;;;0.70;0.50;;;;;;;;;;10518730;28;20131;-79
2022/09/04 19:21:08;;;;;;;0.40;0.40;;;;;;;;;;10516201;28;20547;-80
2022/09/04 19:26:20;;;;;;;0.60;0.60;;;;;;;;;;10526384;28;20071;-80
2022/09/04 19:31:34;;;;;;;0.50;0.50;;;;;;;;;;10528410;28;20614;-80
2022/09/04 19:36:43;;;;;;;0.40;0.40;;;;;;;;;;10537259;28;20046;-79
2022/09/04 19:41:51;;;;;;;0.47;0.47;;;;;;;;;;10537322;28;20076;-81
2022/09/04 19:47:12;;;;;;;0.30;0.30;;;;;;;;;;10519195;28;20500;-80
2022/09/04 19:52:20;;;;;;;1.40;0.50;;;;;;;;;;10512975;28;20062;-79
2022/09/04 19:57:30;;;;;;;0.98;0.60;;;;;;;;;;10518255;28;20124;-80
2022/09/04 20:02:43;;;;;;;0.60;0.60;;;;;;;;;;10536312;28;20499;-80
2022/09/04 20:07:54;;;;;;;0.52;0.52;;;;;;;;;;10501552;28;20048;-79
2022/09/04 20:13:05;;;;;;;1.17;0.70;;;;;;;;;;10530138;28;20082;-79
2022/09/04 20:18:14;;;;;;;0.90;0.70;;;;;;;;;;10517018;28;20131;-81
2022/09/04 20:23:24;;;;;;;0.65;0.57;;;;;;;;;;10516319;28;20050;-80
2022/09/04 20:28:41;;;;;;;0.50;0.50;;;;;;;;;;10525951;28;20063;-80
2022/09/04 20:33:47;;;;;;;0.50;0.50;;;;;;;;;;10533003;28;20574;-80
2022/09/04 20:38:56;;;;;;;0.88;0.47;;;;;;;;;;10517318;28;20048;-80
2022/09/04 20:44:06;;;;;;;0.43;0.38;;;;;;;;;;10499426;28;20044;-79
2022/09/04 20:49:19;;;;;;;0.60;0.50;;;;;;;;;;10530594;28;20048;-79
2022/09/04 20:54:49;;;;;;;0.70;0.60;;;;;;;;;;10491228;28;20123;-79
2022/09/04 20:59:58;;;;;;;1.45;0.70;;;;;;;;;;10512424;28;20047;-80
2022/09/04 21:05:27;;;;;;;1.02;0.73;;;;;;;;;;10520105;28;20036;-80
2022/09/04 21:10:37;;;;;;;0.93;0.65;;;;;;;;;;10514864;28;20043;-80
2022/09/04 21:15:49;;;;;;;1.30;1.02;;;;;;;;;;10491220;28;20040;-80
2022/09/04 21:21:14;;;;;;;0.70;0.57;;;;;;;;;;10527665;28;20048;-79
2022/09/04 21:26:31;;;;;;;0.80;0.57;;;;;;;;;;10532157;28;20115;-80
2022/09/04 21:31:53;;;;;;;0.60;0.60;;;;;;;;;;10540191;28;20602;-80
2022/09/04 21:37:02;;;;;;;0.50;0.50;;;;;;;;;;10518801;28;20512;-80
2022/09/04 21:42:19;;;;;;;0.70;0.70;;;;;;;;;;10540796;28;20128;-79
2022/09/04 21:47:43;;;;;;;2.30;0.85;;;;;;;;;;10541089;28;20052;-80
2022/09/04 21:53:16;;;;;;;1.67;0.90;;;;;;;;;;10498892;28;20166;-80
2022/09/04 21:58:55;;;;;;;0.65;0.60;;;;;;;;;;10536795;28;20068;-80
2022/09/04 22:04:05;;;;;;;0.70;0.60;;;;;;;;;;10528574;28;20056;-79
2022/09/04 22:09:16;;;;;;;0.75;0.70;;;;;;;;;;10511083;28;20032;-79
2022/09/04 22:14:28;;;;;;;0.70;0.60;;;;;;;;;;10522890;28;20036;-80
2022/09/04 22:20:18;;;;;;;0.68;0.68;;;;;;;;;;10505238;28;20036;-81
2022/09/04 22:25:44;;;;;;;1.00;0.60;;;;;;;;;;10497814;28;20515;-80
2022/09/04 22:31:01;;;;;;;;;;;;;;;;;;10513332;28;20079;-79
2022/09/04 22:36:23;;;;;;;0.60;0.57;;;;;;;;;;10539261;28;19928;-80
2022/09/04 22:42:04;;;;;;;1.17;0.73;;;;;;;;;;10512502;28;20503;-79
2022/09/04 22:47:27;;;;;;;0.77;0.77;;;;;;;;;;10488033;28;20085;-79
2022/09/04 22:52:49;;;;;;;0.60;0.60;;;;;;;;;;10522001;28;20152;-79
2022/09/04 22:58:08;;;;;;;1.85;0.73;;;;;;;;;;10500230;28;20078;-81
2022/09/04 23:03:34;;;;;;;0.70;0.70;;;;;;;;;;10530088;28;20105;-80
2022/09/04 23:08:54;;;;;;;0.80;0.70;;;;;;;;;;10502427;28;20127;-79
2022/09/04 23:14:13;;;;;;;1.35;0.60;;;;;;;;;;10516510;28;20063;-80
2022/09/04 23:19:59;;;;;;;0.85;0.73;;;;;;;;;;10486106;28;20579;-79
2022/09/04 23:25:23;;;;;;;0.75;0.73;;;;;;;;;;10403154;28;20151;-80
2022/09/04 23:30:31;;;;;;;1.10;0.68;;;;;;;;;;10501028;28;20064;-80
2022/09/04 23:35:41;;;;;;;0.85;0.55;;;;;;;;;;10528374;28;20070;-80
2022/09/04 23:40:47;;;;;;;1.85;0.60;;;;;;;;;;10521774;28;20131;-80
2022/09/04 23:46:31;;;;;;;0.83;0.60;;;;;;;;;;10500114;28;20667;-79
2022/09/04 23:51:46;;;;;;;1.13;0.93;;;;;;;;;;10527358;28;20097;-79
2022/09/04 23:56:56;;;;;;;3.20;0.65;;;;;;;;;;10488876;28;20393;-80
